Rechercher aéroport 
image banner adimage banner adimage banner ad
image banner ad

0PS0 - Frederick Airpark

Situé à Tylersburg, United States

ICAO - 0PS0, IATA -

Données fournies par Airmate  

Information générale

Coordonnées: N41°22'15" W79°20'30"
Élévation : 1560 feet MSL.
Variation magnétique : -09° East
Voir autres Aéroports à Pennsylvania

Données opérationnelles

Special qualification required
Heure actuelle UTC:
Heure actuelle locale:
Météo à : KDUJ - Dubois Rgnl ( 43 km )
METAR: KDUJ 150553Z AUTO 28006KT 10SM CLR 14/12 A2987 RMK AO2 SLP108 T01440117 10200 20144 55001
TAF: KDUJ 142320Z 1500/1524 01006KT P6SM SCT040 FM150600 02005KT 3SM BR SKC FM150900 VRB03KT 1/4SM FG OVC001 FM151300 33010G20KT P6SM BKN035
Voir NOTAMs / SUP AIP / TFR affectant cet aéroport [VIEW]
Fréquences de communication: [VIEW]

Pistes:

Identifiant RWYQFULongueur (ft)Largeur (ft)SurfaceLDA (ft)
012200100GRASS
192200100GRASS

Coordonnées de l'aéroport

Adresse: Tylersburg United States

Vue satellite de 0PS0